createdAt,value
2017-06-27T00:02:56.192Z,0
2017-06-27T00:07:53.984Z,0
2017-06-27T00:12:49.236Z,0
2017-06-27T00:17:45.325Z,0
2017-06-27T00:22:43.237Z,0
2017-06-27T00:27:38.447Z,0
2017-06-27T00:32:34.092Z,0
2017-06-27T00:37:32.281Z,0
2017-06-27T00:42:27.583Z,0
2017-06-27T00:47:25.726Z,0
2017-06-27T00:52:20.786Z,0
2017-06-27T00:57:18.016Z,0
2017-06-27T01:02:14.457Z,0
2017-06-27T01:07:10.063Z,0
2017-06-27T01:12:07.885Z,0
2017-06-27T01:17:03.008Z,0
2017-06-27T01:21:59.017Z,0
2017-06-27T01:26:54.737Z,0
2017-06-27T01:31:50.329Z,0
2017-06-27T01:36:47.163Z,0
2017-06-27T01:41:45.260Z,0
2017-06-27T01:46:40.374Z,0
2017-06-27T01:51:37.470Z,0
2017-06-27T01:56:33.173Z,0
2017-06-27T02:01:30.003Z,0
2017-06-27T02:06:25.875Z,0
2017-06-27T02:11:21.688Z,0
2017-06-27T02:16:17.533Z,0
2017-06-27T02:21:13.212Z,0
2017-06-27T02:26:08.889Z,0
2017-06-27T02:31:06.845Z,0
2017-06-27T02:36:02.100Z,0
2017-06-27T02:40:58.188Z,0
2017-06-27T02:45:53.969Z,0
2017-06-27T02:50:49.770Z,0
2017-06-27T02:55:45.530Z,0
2017-06-27T03:00:42.350Z,0
2017-06-27T03:05:37.996Z,5
2017-06-27T03:10:34.990Z,5
2017-06-27T03:15:31.500Z,10
2017-06-27T03:20:27.100Z,15
2017-06-27T03:25:23.785Z,15
2017-06-27T03:30:20.647Z,20
2017-06-27T03:35:18.159Z,25
2017-06-27T03:40:13.078Z,30
2017-06-27T03:45:10.069Z,35
2017-06-27T03:50:05.911Z,40
2017-06-27T03:55:02.801Z,45
2017-06-27T03:59:58.854Z,45
2017-06-27T04:04:55.032Z,50
2017-06-27T04:09:52.001Z,50
2017-06-27T04:14:47.685Z,50
2017-06-27T04:19:45.028Z,60
2017-06-27T04:24:40.439Z,65
2017-06-27T04:29:36.962Z,70
2017-06-27T04:34:32.656Z,80
2017-06-27T04:39:28.738Z,105
2017-06-27T04:44:24.749Z,90
2017-06-27T04:49:22.798Z,95
2017-06-27T04:54:19.911Z,100
2017-06-27T04:59:15.495Z,105
2017-06-27T05:04:11.582Z,100
2017-06-27T05:09:07.608Z,120
2017-06-27T05:14:04.808Z,145
2017-06-27T05:19:02.355Z,155
2017-06-27T05:24:00.668Z,170
2017-06-27T05:28:57.917Z,160
2017-06-27T05:33:53.529Z,180
2017-06-27T05:38:49.625Z,175
2017-06-27T05:43:45.554Z,215
2017-06-27T05:48:41.784Z,210
2017-06-27T05:53:37.850Z,205
2017-06-27T05:58:33.478Z,215
2017-06-27T06:03:29.105Z,180
2017-06-27T06:08:25.977Z,170
2017-06-27T06:13:22.474Z,180
2017-06-27T06:18:18.452Z,190
2017-06-27T06:23:14.445Z,200
2017-06-27T06:28:10.514Z,205
2017-06-27T06:33:06.793Z,225
2017-06-27T06:38:02.570Z,225
2017-06-27T06:42:58.688Z,260
2017-06-27T06:47:56.570Z,280
2017-06-27T06:52:52.446Z,270
2017-06-27T06:57:49.197Z,245
2017-06-27T07:02:46.817Z,240
2017-06-27T07:07:42.266Z,275
2017-06-27T07:12:38.112Z,275
2017-06-27T07:17:33.656Z,245
2017-06-27T07:22:30.512Z,275
2017-06-27T07:27:26.264Z,280
2017-06-27T07:32:22.809Z,290
2017-06-27T07:37:19.885Z,305
2017-06-27T07:42:18.113Z,405
2017-06-27T07:47:15.903Z,380
2017-06-27T07:52:11.400Z,295
2017-06-27T07:57:08.626Z,275
2017-06-27T08:02:05.166Z,265
2017-06-27T08:07:02.769Z,325
2017-06-27T08:11:59.075Z,455
2017-06-27T08:16:55.820Z,605
2017-06-27T08:21:52.922Z,325
2017-06-27T08:26:48.594Z,375
2017-06-27T08:31:44.474Z,360
2017-06-27T08:36:40.905Z,365
2017-06-27T08:41:36.771Z,380
2017-06-27T08:46:33.832Z,435
2017-06-27T08:51:31.065Z,515
2017-06-27T08:56:27.779Z,550
2017-06-27T09:01:24.308Z,420
2017-06-27T09:06:20.389Z,400
2017-06-27T09:11:16.083Z,345
2017-06-27T09:16:11.692Z,340
2017-06-27T09:21:07.093Z,295
2017-06-27T09:26:03.081Z,290
2017-06-27T09:31:00.159Z,310
2017-06-27T09:35:59.950Z,290
2017-06-27T09:40:54.886Z,305
2017-06-27T09:45:51.683Z,305
2017-06-27T09:50:48.466Z,305
2017-06-27T09:55:45.089Z,325
2017-06-27T10:00:41.915Z,335
2017-06-27T10:05:37.552Z,320
2017-06-27T10:10:35.117Z,315
2017-06-27T10:15:30.705Z,335
2017-06-27T10:20:27.099Z,375
2017-06-27T10:25:24.289Z,475
2017-06-27T10:30:22.614Z,620
2017-06-27T10:35:18.997Z,415
2017-06-27T10:40:14.570Z,415
2017-06-27T10:45:11.590Z,385
2017-06-27T10:50:07.288Z,340
2017-06-27T10:55:03.226Z,330
2017-06-27T11:00:01.294Z,320
2017-06-27T11:04:57.615Z,315
2017-06-27T11:09:53.116Z,305
2017-06-27T11:14:49.517Z,295
2017-06-27T11:19:46.721Z,305
2017-06-27T11:24:42.505Z,345
2017-06-27T11:29:38.543Z,365
2017-06-27T11:34:35.734Z,370
2017-06-27T11:39:31.530Z,400
2017-06-27T11:44:28.613Z,385
2017-06-27T11:49:24.272Z,355
2017-06-27T11:54:21.176Z,335
2017-06-27T11:59:17.124Z,350
2017-06-27T12:04:14.231Z,365
2017-06-27T12:09:10.070Z,425
2017-06-27T12:14:08.127Z,380
2017-06-27T12:19:04.461Z,345
2017-06-27T12:24:02.322Z,325
2017-06-27T12:28:59.591Z,280
2017-06-27T12:33:54.818Z,275
2017-06-27T12:38:50.925Z,255
2017-06-27T12:43:46.739Z,230
2017-06-27T12:48:42.649Z,220
2017-06-27T12:53:39.594Z,225
2017-06-27T12:58:35.336Z,235
2017-06-27T13:03:32.129Z,225
2017-06-27T13:08:27.648Z,210
2017-06-27T13:13:25.575Z,195
2017-06-27T13:18:20.665Z,200
2017-06-27T13:23:18.366Z,205
2017-06-27T13:28:13.714Z,195
2017-06-27T13:33:09.570Z,195
2017-06-27T13:38:05.526Z,225
2017-06-27T13:43:01.565Z,255
2017-06-27T13:47:59.004Z,260
2017-06-27T13:52:54.849Z,255
2017-06-27T13:57:51.839Z,240
2017-06-27T14:02:48.126Z,230
2017-06-27T14:07:44.150Z,195
2017-06-27T14:12:39.903Z,190
2017-06-27T14:17:36.282Z,190
2017-06-27T14:22:34.360Z,165
2017-06-27T14:27:29.516Z,155
2017-06-27T14:32:26.337Z,160
2017-06-27T14:37:23.833Z,155
2017-06-27T14:42:19.193Z,140
2017-06-27T14:47:15.219Z,155
2017-06-27T14:52:12.255Z,170
2017-06-27T14:57:07.974Z,185
2017-06-27T15:02:03.920Z,190
2017-06-27T15:07:00.111Z,175
2017-06-27T15:11:56.912Z,155
2017-06-27T15:16:53.844Z,150
2017-06-27T15:21:49.462Z,160
2017-06-27T15:26:46.457Z,140
2017-06-27T15:31:42.886Z,120
2017-06-27T15:36:38.510Z,115
2017-06-27T15:41:34.565Z,95
2017-06-27T15:46:31.741Z,80
2017-06-27T15:51:29.363Z,55
2017-06-27T15:56:24.445Z,50
2017-06-27T16:01:20.302Z,55
2017-06-27T16:06:16.421Z,65
2017-06-27T16:11:14.409Z,65
2017-06-27T16:16:09.851Z,65
2017-06-27T16:21:06.896Z,60
2017-06-27T16:26:02.754Z,60
2017-06-27T16:30:59.660Z,55
2017-06-27T16:35:55.313Z,50
2017-06-27T16:40:53.745Z,40
2017-06-27T16:45:50.191Z,30
2017-06-27T16:50:46.931Z,35
2017-06-27T16:55:43.535Z,35
2017-06-27T17:00:39.271Z,45
2017-06-27T17:05:35.766Z,45
2017-06-27T17:10:32.749Z,50
2017-06-27T17:15:28.789Z,40
2017-06-27T17:20:25.892Z,45
2017-06-27T17:25:21.269Z,30
2017-06-27T17:30:18.265Z,25
2017-06-27T17:35:14.913Z,25
2017-06-27T17:40:11.293Z,25
2017-06-27T17:45:08.297Z,20
2017-06-27T17:50:03.830Z,30
2017-06-27T17:54:59.727Z,40
2017-06-27T17:59:56.665Z,40
2017-06-27T18:04:52.392Z,35
2017-06-27T18:09:50.894Z,25
2017-06-27T18:14:47.286Z,15
2017-06-27T18:19:44.261Z,15
2017-06-27T18:24:41.134Z,10
2017-06-27T18:29:37.688Z,10
2017-06-27T18:34:34.758Z,5
2017-06-27T18:39:31.461Z,5
2017-06-27T18:44:27.799Z,5
2017-06-27T18:49:23.833Z,5
2017-06-27T18:54:19.588Z,5
2017-06-27T18:59:15.433Z,5
2017-06-27T19:04:11.230Z,5
2017-06-27T19:09:07.962Z,5
2017-06-27T19:14:03.419Z,0
2017-06-27T19:19:00.947Z,0
2017-06-27T19:23:58.793Z,0
2017-06-27T19:28:55.140Z,0
2017-06-27T19:33:51.744Z,0
2017-06-27T19:38:47.284Z,0
2017-06-27T19:43:43.796Z,0
2017-06-27T19:48:39.720Z,0
2017-06-27T19:53:35.572Z,0
2017-06-27T19:58:31.452Z,0
2017-06-27T20:03:28.011Z,0
2017-06-27T20:08:23.569Z,0
2017-06-27T20:13:20.875Z,0
2017-06-27T20:18:16.287Z,0
2017-06-27T20:23:12.446Z,0
2017-06-27T20:28:08.520Z,0
2017-06-27T20:33:05.404Z,0
2017-06-27T20:38:01.423Z,0
2017-06-27T20:42:57.415Z,0
2017-06-27T20:47:53.217Z,0
2017-06-27T20:52:49.392Z,0
2017-06-27T20:57:46.259Z,0
2017-06-27T21:02:41.868Z,0
2017-06-27T21:07:38.656Z,0
2017-06-27T21:12:35.094Z,0
2017-06-27T21:17:32.170Z,0
2017-06-27T21:22:27.835Z,0
2017-06-27T21:27:24.522Z,0
2017-06-27T21:32:21.048Z,0
2017-06-27T21:37:16.609Z,0
2017-06-27T21:42:13.577Z,0
2017-06-27T21:47:09.146Z,0
2017-06-27T21:52:06.095Z,0
2017-06-27T21:57:02.701Z,0
2017-06-27T22:01:58.319Z,0
2017-06-27T22:06:55.694Z,0
2017-06-27T22:11:52.106Z,0
2017-06-27T22:16:49.039Z,0
2017-06-27T22:21:46.075Z,0
2017-06-27T22:26:42.800Z,0
2017-06-27T22:31:38.556Z,0
2017-06-27T22:36:34.530Z,0
2017-06-27T22:41:30.482Z,0
2017-06-27T22:46:27.364Z,0
2017-06-27T22:51:23.368Z,0
2017-06-27T22:56:20.543Z,0
2017-06-27T23:01:16.063Z,0
2017-06-27T23:06:12.152Z,0
2017-06-27T23:11:09.322Z,0
2017-06-27T23:16:04.980Z,0
2017-06-27T23:21:00.756Z,0
2017-06-27T23:25:57.655Z,0
2017-06-27T23:30:54.231Z,0
2017-06-27T23:35:51.183Z,0
2017-06-27T23:40:46.758Z,0
2017-06-27T23:45:42.628Z,0
2017-06-27T23:50:39.366Z,0
2017-06-27T23:55:36.902Z,0
